Archival Weather

Alykel

Alykel, Russia (UOOO)

Report from: Tuesday, November 21, 2023 4:30 AM UTC
Current time: Friday, July 19, 2024 3:14 AM UTC

Current weather – Weather history – Daily summaries
Weather forecast

Present weatherLight snow, drifting snow
Temperature-26.0°C (-14.8°F)
Wind chill-39.3°C (-38.8°F)
Dew point-29.0°C (-20.2°F)
Winds 13.6 kts (7 m/s, 15.7 mph) South (190°)
Visibility2.2 mi. (3.5 km)
Clouds Ceiling: Overcast 2,600 ft. (792 m)
Altimeter30.15 in.Hg (1021 mB)
Precip. events QF 3:29 PM
Relative humidity76 %
Density altitude-5,584 ft. (-1,702 m)
Remarks No significant changes expected in the next two hours
Flight conditions Instrument Meteorological Conditions
Raw dataUOOO 210430Z 19007MPS 3500 -SN DRSN OVC026 M26/M29 Q1021 R19/35//60 NOSIG RMK QFE749/0999
An error has occurred. This application may no longer respond until reloaded. Reload 🗙